Pagrindinis puslapis
METAR-TAF:

METAR-TAF

Oro uostai :

Kauno oro uostas

Kaunas, Lietuva

platuma: 54-54N, ilguma: 023-55-12E, Aukštis: 77 m

Dabartinis oras

Ataskaita buvo paskelbta 31 minutes, ne 08:50 UTC
Vėjas 4 kt iš Pietų, svyruoja nuo Pietryčių ir Vakarų/Pietvakarių
Temperatūra 14°C
Drėgmė 77%
Slėgis 1015 hPa
Matomumas 10 km arba daugiau
nėra debesų žemiau 1500 m ir nėra kamuolinių lietaus debesų

METAR: EYKA 180850Z 18004KT 140V240 CAVOK 14/10 Q1015

Laikas: 12:21 (09:21 UTC)

Prognozė

Ataskaita buvo paskelbta 4 valandos ir 17 minutes, ne 05:04 UTC
Prognozė galioja nuo 18 metu 06 UTC su 19 metu 06 UTC
Vėjas 6 kt iš Pietų
Matomumas: 9000 m
Išsisklaidę debesys ne aukštis 4000 ft
Laikinai
nuo 19 metu 02 UTC su 19 metu 06 UTC
Matomumas: 3000 m
Išsisklaidę debesys ne aukštis 500 ft
rūkana

TAF: EYKA 180504Z 1806/1906 17006KT 9000 SCT040 TEMPO 1902/1906 3000 BR SCT005

Orai ataskaitas ir orų prognozės (METAR, TAF).

turimą stotys yra geltonos ir raudonos taškus žemėlapyje.

Perkelti pele per norėdami pamatyti stoties vardą.

Tada spustelėkite, norėdami matyti oro stebėjimo ir prognozės.

Norėdami pakeisti žemėlapį: spustelėkite ant žalios mygtukų su juodo kryžiaus žemyn,; žalią mygtuką su brūkšneliu, jei norite nutolinti; arba žalių rodyklių gretimoms žemėlapius.


METAR-TAF: